Terminal Aerodrome Forecast
Issued by NWS

Home | Current Version | Previous Version | Text Only | Print | Product List | Glossary On
Versions: 1 2 3 4 5 6 7 8 9 10 11 12 13 14 15 16 17 18 19 20 21
000
FTUS43 KICT 230533
TAFRSL
TAF
KRSL 230533Z 2306/2406 18018G25KT P6SM SCT006 OVC012
     FM231000 20014KT P6SM SCT006 OVC010
      TEMPO 2311/2313 1SM BR OVC006
     FM231400 34026G33KT P6SM VCSH BKN020
     FM232000 34026G33KT P6SM BKN060=

USA.gov is the U.S. government's official web portal to all federal, state and local government web resources and services.